createdAt,value
2023-01-17T00:00:00.103Z,5.40
2023-01-17T00:02:26.729Z,5.40
2023-01-17T00:05:11.847Z,5.40
2023-01-17T00:07:56.856Z,5.40
2023-01-17T00:10:24.436Z,5.40
2023-01-17T00:12:52.259Z,5.40
2023-01-17T00:15:23.250Z,5.30
2023-01-17T00:17:50.527Z,5.30
2023-01-17T00:20:37.082Z,5.20
2023-01-17T00:23:25.850Z,5.30
2023-01-17T00:26:05.159Z,5.20
2023-01-17T00:28:33.215Z,5.10
2023-01-17T00:30:59.784Z,5.10
2023-01-17T00:33:26.375Z,5.00
2023-01-17T00:35:53.732Z,5.00
2023-01-17T00:38:21.507Z,5.00
2023-01-17T00:40:48.756Z,5.00
2023-01-17T00:43:35.330Z,5.00
2023-01-17T00:46:20.621Z,4.90
2023-01-17T00:49:06.257Z,4.90
2023-01-17T00:51:52.430Z,4.90
2023-01-17T00:54:38.233Z,4.80
2023-01-17T00:57:24.376Z,4.80
2023-01-17T01:00:09.511Z,4.70
2023-01-17T01:02:55.437Z,4.70
2023-01-17T01:05:40.624Z,4.70
2023-01-17T01:08:36.169Z,4.60
2023-01-17T01:11:23.245Z,4.60
2023-01-17T01:14:08.380Z,4.50
2023-01-17T01:16:53.530Z,4.50
2023-01-17T01:19:38.681Z,4.50
2023-01-17T01:22:23.633Z,4.40
2023-01-17T01:25:08.963Z,4.40
2023-01-17T01:27:54.403Z,4.50
2023-01-17T01:30:39.801Z,4.50
2023-01-17T01:33:19.093Z,4.40
2023-01-17T01:35:49.870Z,4.50
2023-01-17T01:38:16.946Z,4.50
2023-01-17T01:40:47.723Z,4.50
2023-01-17T01:43:15.522Z,4.50
2023-01-17T01:45:45.087Z,4.50
2023-01-17T01:48:11.624Z,4.60
2023-01-17T01:50:38.827Z,4.60
2023-01-17T01:53:06.157Z,4.60
2023-01-17T01:55:38.611Z,4.60
2023-01-17T01:58:14.847Z,4.60
2023-01-17T02:00:41.701Z,4.60
2023-01-17T02:03:10.802Z,4.60
2023-01-17T02:05:37.366Z,4.60
2023-01-17T02:08:06.042Z,4.60
2023-01-17T02:10:33.215Z,4.70
2023-01-17T02:12:59.952Z,4.70
2023-01-17T02:15:31.220Z,4.60
2023-01-17T02:18:03.909Z,4.70
2023-01-17T02:20:33.962Z,4.60
2023-01-17T02:23:06.474Z,4.60
2023-01-17T02:25:43.520Z,4.50
2023-01-17T02:28:16.253Z,4.50
2023-01-17T02:30:45.896Z,4.50
2023-01-17T02:33:18.213Z,4.40
2023-01-17T02:35:53.793Z,4.40
2023-01-17T02:38:31.459Z,4.40
2023-01-17T02:41:07.780Z,4.40
2023-01-17T02:43:35.921Z,4.30
2023-01-17T02:46:02.681Z,4.30
2023-01-17T02:48:31.234Z,4.40
2023-01-17T02:51:16.082Z,4.40
2023-01-17T02:53:43.022Z,4.30
2023-01-17T02:56:15.932Z,4.30
2023-01-17T02:59:01.369Z,4.30
2023-01-17T03:01:48.351Z,4.30
2023-01-17T03:04:17.529Z,4.30
2023-01-17T03:06:46.757Z,4.30
2023-01-17T03:09:14.999Z,4.30
2023-01-17T03:11:42.065Z,4.20
2023-01-17T03:14:08.579Z,4.20
2023-01-17T03:16:36.012Z,4.20
2023-01-17T03:19:02.706Z,4.20
2023-01-17T03:21:29.300Z,4.20
2023-01-17T03:23:55.871Z,4.20
2023-01-17T03:26:22.407Z,4.20
2023-01-17T03:28:48.929Z,4.10
2023-01-17T03:31:15.958Z,4.10
2023-01-17T03:33:42.544Z,4.10
2023-01-17T03:36:09.164Z,4.00
2023-01-17T03:38:37.247Z,4.00
2023-01-17T03:41:04.117Z,3.90
2023-01-17T03:43:30.647Z,3.90
2023-01-17T03:46:07.095Z,3.90
2023-01-17T03:48:34.115Z,3.90
2023-01-17T03:51:00.637Z,3.90
2023-01-17T03:53:27.162Z,3.80
2023-01-17T03:55:53.673Z,3.90
2023-01-17T03:58:20.331Z,3.80
2023-01-17T04:00:46.919Z,3.80
2023-01-17T04:03:13.708Z,3.80
2023-01-17T04:05:40.230Z,3.80
2023-01-17T04:08:07.428Z,3.80
2023-01-17T04:10:34.076Z,3.70
2023-01-17T04:13:00.691Z,3.70
2023-01-17T04:15:27.279Z,3.70
2023-01-17T04:17:53.873Z,3.60
2023-01-17T04:20:26.147Z,3.60
2023-01-17T04:22:52.644Z,3.50
2023-01-17T04:25:19.933Z,3.50
2023-01-17T04:27:46.432Z,3.50
2023-01-17T04:30:13.005Z,3.40
2023-01-17T04:32:39.569Z,3.40
2023-01-17T04:35:07.083Z,3.30
2023-01-17T04:37:33.690Z,3.30
2023-01-17T04:40:00.183Z,3.20
2023-01-17T04:42:26.774Z,3.20
2023-01-17T04:44:53.288Z,3.80
2023-01-17T04:47:19.787Z,3.10
2023-01-17T04:49:46.360Z,3.00
2023-01-17T04:52:13.010Z,3.10
2023-01-17T04:54:39.528Z,3.00
2023-01-17T04:57:06.229Z,3.00
2023-01-17T04:59:32.768Z,3.00
2023-01-17T05:01:59.313Z,3.00
2023-01-17T05:04:25.935Z,3.00
2023-01-17T05:06:52.447Z,3.00
2023-01-17T05:09:18.985Z,3.00
2023-01-17T05:11:45.483Z,3.00
2023-01-17T05:14:12.044Z,3.00
2023-01-17T05:16:38.646Z,3.00
2023-01-17T05:19:05.179Z,3.10
2023-01-17T05:21:32.219Z,3.10
2023-01-17T05:23:58.796Z,3.10
2023-01-17T05:26:25.307Z,3.10
2023-01-17T05:28:51.842Z,3.20
2023-01-17T05:31:18.478Z,3.00
2023-01-17T05:33:44.988Z,3.00
2023-01-17T05:36:11.476Z,3.00
2023-01-17T05:38:37.950Z,3.00
2023-01-17T05:41:05.081Z,3.00
2023-01-17T05:43:31.661Z,3.00
2023-01-17T05:45:58.316Z,3.00
2023-01-17T05:48:24.898Z,3.00
2023-01-17T05:50:52.165Z,3.10
2023-01-17T05:53:18.784Z,3.00
2023-01-17T05:55:45.399Z,3.00
2023-01-17T05:58:14.199Z,3.00
2023-01-17T06:00:40.843Z,3.00
2023-01-17T06:03:07.363Z,3.00
2023-01-17T06:05:33.958Z,3.00
2023-01-17T06:08:00.689Z,3.10
2023-01-17T06:10:27.378Z,3.10
2023-01-17T06:13:16.574Z,3.00
2023-01-17T06:15:43.340Z,3.00
2023-01-17T06:18:11.515Z,3.00
2023-01-17T06:20:38.114Z,3.00
2023-01-17T06:23:05.454Z,3.00
2023-01-17T06:25:36.520Z,3.00
2023-01-17T06:28:03.078Z,3.10
2023-01-17T06:30:29.624Z,3.10
2023-01-17T06:32:56.130Z,3.10
2023-01-17T06:35:22.856Z,3.10
2023-01-17T06:37:52.822Z,3.10
2023-01-17T06:40:19.455Z,3.20
2023-01-17T06:42:46.009Z,3.10
2023-01-17T06:45:12.684Z,3.20
2023-01-17T06:47:42.524Z,3.10
2023-01-17T06:50:11.327Z,3.10
2023-01-17T06:52:38.018Z,3.10
2023-01-17T06:55:04.700Z,3.10
2023-01-17T06:57:31.373Z,3.10
2023-01-17T06:59:57.907Z,3.00
2023-01-17T07:02:24.492Z,3.00
2023-01-17T07:04:51.116Z,3.00
2023-01-17T07:07:17.673Z,3.00
2023-01-17T07:09:44.269Z,3.00
2023-01-17T07:12:10.857Z,2.90
2023-01-17T07:14:37.406Z,2.90
2023-01-17T07:17:03.981Z,3.00
2023-01-17T07:19:30.516Z,3.00
2023-01-17T07:21:57.086Z,3.00
2023-01-17T07:24:23.582Z,2.90
2023-01-17T07:26:50.790Z,3.00
2023-01-17T07:29:17.706Z,2.90
2023-01-17T07:31:44.346Z,2.90
2023-01-17T07:34:11.362Z,2.90
2023-01-17T07:36:37.890Z,2.80
2023-01-17T07:39:06.300Z,2.90
2023-01-17T07:41:34.624Z,2.80
2023-01-17T07:44:01.184Z,2.80
2023-01-17T07:46:27.788Z,2.80
2023-01-17T07:48:54.372Z,2.90
2023-01-17T07:51:20.881Z,2.90
2023-01-17T07:53:47.374Z,3.00
2023-01-17T07:56:13.923Z,3.10
2023-01-17T07:58:40.706Z,3.20
2023-01-17T08:01:09.068Z,3.30
2023-01-17T08:03:39.970Z,3.30
2023-01-17T08:06:07.778Z,3.40
2023-01-17T08:08:34.463Z,3.30
2023-01-17T08:11:01.030Z,3.20
2023-01-17T08:13:29.779Z,3.20
2023-01-17T08:15:56.564Z,3.30
2023-01-17T08:18:23.167Z,3.40
2023-01-17T08:20:49.733Z,3.30
2023-01-17T08:23:16.302Z,3.40
2023-01-17T08:25:42.794Z,3.50
2023-01-17T08:28:09.353Z,3.60
2023-01-17T08:30:35.923Z,3.80
2023-01-17T08:33:02.506Z,4.00
2023-01-17T08:35:29.074Z,4.40
2023-01-17T08:37:56.247Z,5.10
2023-01-17T08:40:22.930Z,5.80
2023-01-17T08:42:56.863Z,6.60
2023-01-17T08:45:23.443Z,7.50
2023-01-17T08:47:50.174Z,8.20
2023-01-17T08:50:20.571Z,8.80
2023-01-17T08:52:48.352Z,9.40
2023-01-17T08:55:15.373Z,9.90
2023-01-17T08:57:41.882Z,10.00
2023-01-17T09:00:08.999Z,10.50
2023-01-17T09:02:36.231Z,10.70
2023-01-17T09:05:02.804Z,10.80
2023-01-17T09:07:29.432Z,10.90
2023-01-17T09:09:55.951Z,10.70
2023-01-17T09:12:22.595Z,10.50
2023-01-17T09:14:49.120Z,10.10
2023-01-17T09:17:15.956Z,9.70
2023-01-17T09:19:47.779Z,9.60
2023-01-17T09:22:14.664Z,9.30
2023-01-17T09:24:42.120Z,8.90
2023-01-17T09:27:08.664Z,8.80
2023-01-17T09:29:35.172Z,8.80
2023-01-17T09:32:02.096Z,9.10
2023-01-17T09:34:28.679Z,9.30
2023-01-17T09:36:56.932Z,10.20
2023-01-17T09:39:23.558Z,10.70
2023-01-17T09:41:59.294Z,11.20
2023-01-17T09:44:31.805Z,11.80
2023-01-17T09:47:02.880Z,12.30
2023-01-17T09:49:32.889Z,12.60
2023-01-17T09:51:59.823Z,12.80
2023-01-17T09:54:32.026Z,13.10
2023-01-17T09:56:58.642Z,13.30
2023-01-17T09:59:35.532Z,13.80
2023-01-17T10:02:26.540Z,14.30
2023-01-17T10:05:03.311Z,14.50
2023-01-17T10:07:35.107Z,13.90
2023-01-17T10:10:20.483Z,13.20
2023-01-17T10:12:53.415Z,12.50
2023-01-17T10:15:23.005Z,13.00
2023-01-17T10:18:08.472Z,13.30
2023-01-17T10:20:53.908Z,12.60
2023-01-17T10:23:30.192Z,11.70
2023-01-17T10:26:09.804Z,11.50
2023-01-17T10:28:39.558Z,11.50
2023-01-17T10:31:07.777Z,11.00
2023-01-17T10:33:44.404Z,10.80
2023-01-17T10:36:15.229Z,10.80
2023-01-17T10:38:45.544Z,10.30
2023-01-17T10:41:18.213Z,10.40
2023-01-17T10:44:00.560Z,11.40
2023-01-17T10:46:38.957Z,11.00
2023-01-17T10:49:05.558Z,11.70
2023-01-17T10:51:32.098Z,11.50
2023-01-17T10:54:17.200Z,11.30
2023-01-17T10:56:43.718Z,11.50
2023-01-17T10:59:27.326Z,11.00
2023-01-17T11:01:53.926Z,10.60
2023-01-17T11:04:21.904Z,9.90
2023-01-17T11:07:08.371Z,10.10
2023-01-17T11:09:39.191Z,11.60
2023-01-17T11:12:05.844Z,12.70
2023-01-17T11:14:35.839Z,13.80
2023-01-17T11:17:05.903Z,14.30
2023-01-17T11:19:35.872Z,14.70
2023-01-17T11:22:04.897Z,13.90
2023-01-17T11:24:34.740Z,13.40
2023-01-17T11:27:02.040Z,14.20
2023-01-17T11:29:29.555Z,14.00
2023-01-17T11:31:56.208Z,12.80
2023-01-17T11:34:24.764Z,12.20
2023-01-17T11:37:14.032Z,11.90
2023-01-17T11:39:40.985Z,12.60
2023-01-17T11:42:28.217Z,12.90
2023-01-17T11:44:55.068Z,13.10
2023-01-17T11:47:21.626Z,13.50
2023-01-17T11:49:48.951Z,13.50
2023-01-17T11:52:18.769Z,13.70
2023-01-17T11:54:47.035Z,13.70
2023-01-17T11:57:21.291Z,13.40
2023-01-17T11:59:48.220Z,13.80
2023-01-17T12:02:37.656Z,14.30
2023-01-17T12:05:04.173Z,14.40
2023-01-17T12:07:35.501Z,14.70
2023-01-17T12:10:10.955Z,15.40
2023-01-17T12:13:03.501Z,15.80
2023-01-17T12:15:39.085Z,15.60
2023-01-17T12:18:06.082Z,15.10
2023-01-17T12:20:32.941Z,14.00
2023-01-17T12:23:13.918Z,12.80
2023-01-17T12:25:40.408Z,11.90
2023-01-17T12:28:18.865Z,11.10
2023-01-17T12:30:48.351Z,10.60
2023-01-17T12:33:15.676Z,10.30
2023-01-17T12:35:45.091Z,10.30
2023-01-17T12:38:27.451Z,10.80
2023-01-17T12:41:00.601Z,11.70
2023-01-17T12:43:32.927Z,13.00
2023-01-17T12:46:03.142Z,13.50
2023-01-17T12:48:34.086Z,14.00
2023-01-17T12:51:28.990Z,14.40
2023-01-17T12:54:04.181Z,14.60
2023-01-17T12:56:48.724Z,14.30
2023-01-17T12:59:15.711Z,14.50
2023-01-17T13:01:43.904Z,14.60
2023-01-17T13:04:15.769Z,14.60
2023-01-17T13:06:48.683Z,14.40
2023-01-17T13:09:17.210Z,14.70
2023-01-17T13:11:49.715Z,14.40
2023-01-17T13:14:16.394Z,14.00
2023-01-17T13:16:46.011Z,14.00
2023-01-17T13:19:32.797Z,14.10
2023-01-17T13:21:59.785Z,14.20
2023-01-17T13:24:37.381Z,14.20
2023-01-17T13:27:07.376Z,14.10
2023-01-17T13:29:39.416Z,14.20
2023-01-17T13:32:13.784Z,14.10
2023-01-17T13:34:49.301Z,13.70
2023-01-17T13:37:34.178Z,13.20
2023-01-17T13:40:06.518Z,12.70
2023-01-17T13:42:45.356Z,12.40
2023-01-17T13:45:20.595Z,12.20
2023-01-17T13:47:47.179Z,11.90
2023-01-17T13:50:36.979Z,11.70
2023-01-17T13:53:22.187Z,11.40
2023-01-17T13:55:50.922Z,11.10
2023-01-17T13:58:28.057Z,10.80
2023-01-17T14:00:54.891Z,10.40
2023-01-17T14:03:40.187Z,10.30
2023-01-17T14:06:26.695Z,10.10
2023-01-17T14:08:53.244Z,9.90
2023-01-17T14:11:19.840Z,9.70
2023-01-17T14:13:46.377Z,9.60
2023-01-17T14:16:21.867Z,9.50
2023-01-17T14:18:48.798Z,9.30
2023-01-17T14:21:28.590Z,9.10
2023-01-17T14:23:58.264Z,9.00
2023-01-17T14:26:37.005Z,8.80
2023-01-17T14:29:29.480Z,8.60
2023-01-17T14:32:00.386Z,8.50
2023-01-17T14:34:27.125Z,8.40
2023-01-17T14:37:03.134Z,8.30
2023-01-17T14:39:29.699Z,8.30
2023-01-17T14:41:56.221Z,8.10
2023-01-17T14:44:22.760Z,7.90
2023-01-17T14:46:49.266Z,7.90
2023-01-17T14:49:20.806Z,7.70
2023-01-17T14:52:00.633Z,7.60
2023-01-17T14:54:27.285Z,7.40
2023-01-17T14:57:13.487Z,7.20
2023-01-17T14:59:39.995Z,7.20
2023-01-17T15:02:15.133Z,7.10
2023-01-17T15:04:41.995Z,6.90
2023-01-17T15:07:12.501Z,6.80
2023-01-17T15:09:42.019Z,6.70
2023-01-17T15:12:10.140Z,6.60
2023-01-17T15:14:42.194Z,6.60
2023-01-17T15:17:28.950Z,6.40
2023-01-17T15:19:57.137Z,6.30
2023-01-17T15:22:25.665Z,6.30
2023-01-17T15:24:53.225Z,6.20
2023-01-17T15:27:19.869Z,6.10
2023-01-17T15:29:46.747Z,6.00
2023-01-17T15:32:18.290Z,5.90
2023-01-17T15:34:46.100Z,5.90
2023-01-17T15:37:21.676Z,5.80
2023-01-17T15:39:48.259Z,5.70
2023-01-17T15:42:31.283Z,5.60
2023-01-17T15:45:00.754Z,5.50
2023-01-17T15:47:30.340Z,5.40
2023-01-17T15:49:57.416Z,5.40
2023-01-17T15:52:23.940Z,5.30
2023-01-17T15:54:53.374Z,5.40
2023-01-17T15:57:24.108Z,5.20
2023-01-17T15:59:53.743Z,5.20
2023-01-17T16:02:24.944Z,5.10
2023-01-17T16:04:51.608Z,5.10
2023-01-17T16:07:21.928Z,5.10
2023-01-17T16:09:49.514Z,5.00
2023-01-17T16:12:16.134Z,5.00
2023-01-17T16:14:59.587Z,5.00
2023-01-17T16:17:30.772Z,5.00
2023-01-17T16:19:57.313Z,5.00
2023-01-17T16:22:23.828Z,4.90
2023-01-17T16:24:50.617Z,4.80
2023-01-17T16:27:17.136Z,4.90
2023-01-17T16:29:43.656Z,4.70
2023-01-17T16:32:10.196Z,4.70
2023-01-17T16:34:36.717Z,4.70
2023-01-17T16:37:07.965Z,4.70
2023-01-17T16:39:34.497Z,4.60
2023-01-17T16:42:04.312Z,4.30
2023-01-17T16:44:31.214Z,4.60
2023-01-17T16:46:59.220Z,4.50
2023-01-17T16:49:25.793Z,4.50
2023-01-17T16:51:52.309Z,4.50
2023-01-17T16:54:18.861Z,4.40
2023-01-17T16:56:45.372Z,4.40
2023-01-17T16:59:11.962Z,4.40
2023-01-17T17:01:38.581Z,4.40
2023-01-17T17:04:05.120Z,4.40
2023-01-17T17:06:31.971Z,4.40
2023-01-17T17:08:59.318Z,4.80
2023-01-17T17:11:25.819Z,4.40
2023-01-17T17:13:52.720Z,4.50
2023-01-17T17:16:21.227Z,4.40
2023-01-17T17:18:53.924Z,4.40
2023-01-17T17:21:20.623Z,4.30
2023-01-17T17:23:50.805Z,4.30
2023-01-17T17:26:18.431Z,4.30
2023-01-17T17:28:44.974Z,4.30
2023-01-17T17:31:11.701Z,4.20
2023-01-17T17:33:38.725Z,4.20
2023-01-17T17:36:10.234Z,4.20
2023-01-17T17:38:37.630Z,4.20
2023-01-17T17:41:05.383Z,4.20
2023-01-17T17:43:35.021Z,4.20
2023-01-17T17:46:01.786Z,4.10
2023-01-17T17:48:28.378Z,4.00
2023-01-17T17:51:00.846Z,4.00
2023-01-17T17:53:27.723Z,4.00
2023-01-17T17:55:54.690Z,3.90
2023-01-17T17:58:21.849Z,3.90
2023-01-17T18:00:48.652Z,3.80
2023-01-17T18:03:15.354Z,3.70
2023-01-17T18:05:42.564Z,3.70
2023-01-17T18:08:10.835Z,3.60
2023-01-17T18:10:37.922Z,3.50
2023-01-17T18:13:04.474Z,3.50
2023-01-17T18:15:31.059Z,3.50
2023-01-17T18:17:58.029Z,3.50
2023-01-17T18:20:24.615Z,3.50
2023-01-17T18:22:51.103Z,3.50
2023-01-17T18:25:17.605Z,3.40
2023-01-17T18:27:45.142Z,3.30
2023-01-17T18:30:12.479Z,3.30
2023-01-17T18:32:39.031Z,3.30
2023-01-17T18:35:05.832Z,3.30
2023-01-17T18:37:33.279Z,3.20
2023-01-17T18:39:59.831Z,3.20
2023-01-17T18:42:27.362Z,3.20
2023-01-17T18:44:53.895Z,3.10
2023-01-17T18:47:20.456Z,3.10
2023-01-17T18:49:47.047Z,3.10
2023-01-17T18:52:14.534Z,3.10
2023-01-17T18:54:41.098Z,3.10
2023-01-17T18:57:07.739Z,3.10
2023-01-17T18:59:34.530Z,3.00
2023-01-17T19:02:01.073Z,3.10
2023-01-17T19:04:28.549Z,3.10
2023-01-17T19:06:55.576Z,3.10
2023-01-17T19:09:22.681Z,3.00
2023-01-17T19:11:50.008Z,3.80
2023-01-17T19:14:16.778Z,7.50
2023-01-17T19:16:43.724Z,9.30
2023-01-17T19:19:12.450Z,10.30
2023-01-17T19:21:39.484Z,11.00
2023-01-17T19:24:06.632Z,11.50
2023-01-17T19:26:33.220Z,11.80
2023-01-17T19:29:00.319Z,11.80
2023-01-17T19:31:27.596Z,12.10
2023-01-17T19:33:57.136Z,12.20
2023-01-17T19:36:25.124Z,12.20
2023-01-17T19:39:03.515Z,12.40
2023-01-17T19:41:31.350Z,12.50
2023-01-17T19:44:02.251Z,12.40
2023-01-17T19:46:29.094Z,12.30
2023-01-17T19:48:56.714Z,12.40
2023-01-17T19:51:23.515Z,10.90
2023-01-17T19:53:50.302Z,9.20
2023-01-17T19:56:17.995Z,7.80
2023-01-17T19:58:45.318Z,7.20
2023-01-17T20:01:15.374Z,6.70
2023-01-17T20:03:44.152Z,5.70
2023-01-17T20:06:11.975Z,5.20
2023-01-17T20:08:38.544Z,5.00
2023-01-17T20:11:06.298Z,5.00
2023-01-17T20:13:34.231Z,4.70
2023-01-17T20:16:01.913Z,4.60
2023-01-17T20:18:28.544Z,4.60
2023-01-17T20:20:57.319Z,4.40
2023-01-17T20:23:24.336Z,4.30
2023-01-17T20:25:59.066Z,4.30
2023-01-17T20:28:26.785Z,4.20
2023-01-17T20:30:53.937Z,4.20
2023-01-17T20:33:20.488Z,4.10
2023-01-17T20:35:47.062Z,4.40
2023-01-17T20:38:13.721Z,4.20
2023-01-17T20:40:40.990Z,4.00
2023-01-17T20:43:09.913Z,4.00
2023-01-17T20:45:36.497Z,4.00
2023-01-17T20:48:04.801Z,4.00
2023-01-17T20:50:31.776Z,4.00
2023-01-17T20:52:58.325Z,4.00
2023-01-17T20:55:24.918Z,3.90
2023-01-17T20:57:51.477Z,3.90
2023-01-17T21:00:18.241Z,3.90
2023-01-17T21:02:45.224Z,3.90
2023-01-17T21:05:12.797Z,3.80
2023-01-17T21:07:39.352Z,3.80
2023-01-17T21:10:06.109Z,4.20
2023-01-17T21:12:33.116Z,3.80
2023-01-17T21:14:59.648Z,3.80
2023-01-17T21:17:26.230Z,3.80
2023-01-17T21:19:52.763Z,3.60
2023-01-17T21:22:19.337Z,3.80
2023-01-17T21:24:45.843Z,3.80
2023-01-17T21:27:12.841Z,3.80
2023-01-17T21:29:39.386Z,3.80
2023-01-17T21:32:05.904Z,4.10
2023-01-17T21:34:34.501Z,3.70
2023-01-17T21:37:01.008Z,3.80
2023-01-17T21:39:29.195Z,3.60
2023-01-17T21:41:55.700Z,3.60
2023-01-17T21:44:23.092Z,3.60
2023-01-17T21:46:53.630Z,3.60
2023-01-17T21:49:21.743Z,3.60
2023-01-17T21:51:54.344Z,3.60
2023-01-17T21:54:41.312Z,3.60
2023-01-17T21:57:26.587Z,3.50
2023-01-17T21:59:53.289Z,3.60
2023-01-17T22:02:20.270Z,3.50
2023-01-17T22:04:46.879Z,3.60
2023-01-17T22:07:13.476Z,3.60
2023-01-17T22:09:40.166Z,3.60
2023-01-17T22:12:06.782Z,3.50
2023-01-17T22:14:33.290Z,3.50
2023-01-17T22:16:59.801Z,3.50
2023-01-17T22:19:26.288Z,3.50
2023-01-17T22:21:53.978Z,3.50
2023-01-17T22:24:21.611Z,3.50
2023-01-17T22:26:48.103Z,3.50
2023-01-17T22:29:18.793Z,3.40
2023-01-17T22:31:45.576Z,3.30
2023-01-17T22:34:13.831Z,3.40
2023-01-17T22:36:40.379Z,3.40
2023-01-17T22:39:07.118Z,3.40
2023-01-17T22:41:35.135Z,3.30
2023-01-17T22:44:08.517Z,3.40
2023-01-17T22:46:37.141Z,3.30
2023-01-17T22:49:04.543Z,3.30
2023-01-17T22:51:31.322Z,3.30
2023-01-17T22:53:59.228Z,3.30
2023-01-17T22:56:27.490Z,3.30
2023-01-17T22:58:54.151Z,3.30
2023-01-17T23:01:21.757Z,3.30
2023-01-17T23:03:58.685Z,3.30
2023-01-17T23:06:26.203Z,3.30
2023-01-17T23:08:54.298Z,3.30
2023-01-17T23:11:39.394Z,3.30
2023-01-17T23:14:22.925Z,3.20
2023-01-17T23:17:26.569Z,3.20
2023-01-17T23:19:54.408Z,3.10
2023-01-17T23:22:20.974Z,3.10
2023-01-17T23:24:51.725Z,3.10
2023-01-17T23:27:44.567Z,3.00
2023-01-17T23:30:12.660Z,3.00
2023-01-17T23:32:40.056Z,2.90
2023-01-17T23:35:06.992Z,3.00
2023-01-17T23:37:52.511Z,2.90
2023-01-17T23:40:19.166Z,2.90
2023-01-17T23:43:04.335Z,2.80
2023-01-17T23:45:33.610Z,2.90
2023-01-17T23:48:00.707Z,2.80
2023-01-17T23:50:27.459Z,2.70
2023-01-17T23:52:53.940Z,2.60
2023-01-17T23:55:20.448Z,2.50
2023-01-17T23:57:48.888Z,2.60
